createdAt,value
2023-05-06T00:01:03.625Z,12.40
2023-05-06T00:03:07.233Z,13.73
2023-05-06T00:05:12.387Z,12.40
2023-05-06T00:07:16.888Z,12.67
2023-05-06T00:09:21.149Z,12.37
2023-05-06T00:11:24.591Z,11.30
2023-05-06T00:13:28.014Z,10.87
2023-05-06T00:15:32.319Z,12.67
2023-05-06T00:17:36.041Z,10.90
2023-05-06T00:19:39.801Z,13.17
2023-05-06T00:21:44.505Z,12.90
2023-05-06T00:23:47.836Z,11.17
2023-05-06T00:25:51.200Z,12.73
2023-05-06T00:27:54.562Z,11.20
2023-05-06T00:29:58.657Z,10.43
2023-05-06T00:32:02.095Z,10.67
2023-05-06T00:34:05.615Z,11.80
2023-05-06T00:36:09.924Z,12.23
2023-05-06T00:38:15.604Z,10.90
2023-05-06T00:40:19.278Z,13.70
2023-05-06T00:42:23.538Z,13.40
2023-05-06T00:44:27.023Z,11.83
2023-05-06T00:46:30.569Z,10.93
2023-05-06T00:48:34.036Z,14.07
2023-05-06T00:50:40.383Z,12.90
2023-05-06T00:52:43.963Z,11.50
2023-05-06T00:54:48.814Z,13.77
2023-05-06T00:56:52.531Z,11.07
2023-05-06T00:58:56.112Z,12.50
2023-05-06T01:01:01.750Z,13.57
2023-05-06T01:03:05.621Z,12.37
2023-05-06T01:05:11.227Z,12.10
2023-05-06T01:07:27.529Z,12.33
2023-05-06T01:09:40.377Z,14.97
2023-05-06T01:11:50.407Z,12.13
2023-05-06T01:14:06.248Z,11.40
2023-05-06T01:16:13.764Z,12.40
2023-05-06T01:18:19.179Z,12.23
2023-05-06T01:20:23.016Z,11.70
2023-05-06T01:22:27.941Z,13.13
2023-05-06T01:24:40.243Z,23.07
2023-05-06T01:26:44.033Z,17.17
2023-05-06T01:28:47.574Z,13.37
2023-05-06T01:31:00.400Z,23.33
2023-05-06T01:33:09.353Z,18.13
2023-05-06T01:35:18.880Z,14.87
2023-05-06T01:37:29.144Z,15.03
2023-05-06T01:39:34.726Z,12.40
2023-05-06T01:41:41.790Z,12.27
2023-05-06T01:43:49.282Z,10.20
2023-05-06T01:45:55.213Z,10.40
2023-05-06T01:48:00.429Z,11.53
2023-05-06T01:50:04.494Z,9.53
2023-05-06T01:52:09.745Z,11.60
2023-05-06T01:54:13.177Z,12.30
2023-05-06T01:56:17.471Z,11.73
2023-05-06T01:58:22.291Z,10.77
2023-05-06T02:00:26.504Z,13.60
2023-05-06T02:02:30.770Z,11.47
2023-05-06T02:04:34.536Z,9.20
2023-05-06T02:06:38.055Z,9.60
2023-05-06T02:08:43.042Z,9.80
2023-05-06T02:10:50.432Z,11.87
2023-05-06T02:12:55.237Z,10.50
2023-05-06T02:15:04.158Z,9.17
2023-05-06T02:17:08.284Z,9.97
2023-05-06T02:19:12.305Z,9.70
2023-05-06T02:21:15.900Z,12.40
2023-05-06T02:23:19.322Z,10.23
2023-05-06T02:25:23.389Z,12.93
2023-05-06T02:27:26.874Z,11.00
2023-05-06T02:29:32.032Z,15.30
2023-05-06T02:31:37.014Z,11.57
2023-05-06T02:33:40.538Z,10.80
2023-05-06T02:35:44.088Z,13.47
2023-05-06T02:37:47.622Z,18.90
2023-05-06T02:39:53.871Z,13.17
2023-05-06T02:41:57.363Z,12.43
2023-05-06T02:44:00.781Z,12.00
2023-05-06T02:46:04.432Z,15.43
2023-05-06T02:48:09.339Z,15.07
2023-05-06T02:50:13.490Z,11.17
2023-05-06T02:52:17.033Z,16.70
2023-05-06T02:54:20.706Z,11.53
2023-05-06T02:56:24.249Z,12.87
2023-05-06T02:58:27.663Z,12.70
2023-05-06T03:00:31.475Z,14.73
2023-05-06T03:02:35.237Z,15.83
2023-05-06T03:04:40.315Z,14.23
2023-05-06T03:06:44.053Z,13.90
2023-05-06T03:08:47.560Z,10.70
2023-05-06T03:10:51.297Z,11.30
2023-05-06T03:12:57.691Z,12.13
2023-05-06T03:15:02.350Z,10.97
2023-05-06T03:17:05.948Z,12.57
2023-05-06T03:19:12.549Z,12.70
2023-05-06T03:21:18.492Z,17.40
2023-05-06T03:23:23.877Z,12.00
2023-05-06T03:25:27.842Z,11.83
2023-05-06T03:27:32.370Z,10.00
2023-05-06T03:29:40.578Z,11.77
2023-05-06T03:31:45.873Z,12.77
2023-05-06T03:33:49.842Z,11.43
2023-05-06T03:35:53.770Z,11.57
2023-05-06T03:37:59.005Z,11.87
2023-05-06T03:40:09.000Z,11.33
2023-05-06T03:42:12.756Z,10.10
2023-05-06T03:44:16.394Z,13.30
2023-05-06T03:46:20.618Z,10.83
2023-05-06T03:48:24.408Z,11.73
2023-05-06T03:50:29.216Z,11.93
2023-05-06T03:52:32.889Z,12.53
2023-05-06T03:54:38.858Z,10.83
2023-05-06T03:56:43.500Z,13.23
2023-05-06T03:58:47.563Z,12.37
2023-05-06T04:00:51.274Z,10.20
2023-05-06T04:02:57.996Z,12.10
2023-05-06T04:05:11.047Z,12.00
2023-05-06T04:07:14.879Z,11.60
2023-05-06T04:09:18.453Z,10.40
2023-05-06T04:11:23.829Z,9.23
2023-05-06T04:13:28.073Z,9.10
2023-05-06T04:15:35.258Z,11.20
2023-05-06T04:17:43.229Z,8.87
2023-05-06T04:19:47.336Z,9.13
2023-05-06T04:21:50.956Z,9.23
2023-05-06T04:24:00.746Z,13.57
2023-05-06T04:26:11.111Z,10.17
2023-05-06T04:28:18.863Z,9.67
2023-05-06T04:30:27.138Z,9.40
2023-05-06T04:32:31.332Z,7.13
2023-05-06T04:34:36.358Z,11.10
2023-05-06T04:36:41.937Z,11.20
2023-05-06T04:39:08.746Z,9.03
2023-05-06T04:41:15.788Z,10.93
2023-05-06T04:43:21.090Z,9.10
2023-05-06T04:45:29.807Z,10.23
2023-05-06T04:47:34.791Z,15.00
2023-05-06T04:49:39.097Z,9.90
2023-05-06T04:51:43.475Z,11.03
2023-05-06T04:53:47.690Z,10.10
2023-05-06T04:55:51.177Z,10.80
2023-05-06T04:57:55.448Z,8.33
2023-05-06T05:00:00.399Z,8.20
2023-05-06T05:02:03.973Z,8.60
2023-05-06T05:04:07.715Z,9.23
2023-05-06T05:06:13.201Z,8.63
2023-05-06T05:08:16.874Z,6.87
2023-05-06T05:10:20.462Z,7.87
2023-05-06T05:12:26.111Z,9.43
2023-05-06T05:14:30.586Z,8.13
2023-05-06T05:16:36.128Z,10.23
2023-05-06T05:18:40.860Z,9.47
2023-05-06T05:20:51.530Z,8.70
2023-05-06T05:22:56.321Z,8.10
2023-05-06T05:24:59.914Z,9.60
2023-05-06T05:27:03.566Z,10.07
2023-05-06T05:29:08.033Z,9.47
2023-05-06T05:31:12.389Z,10.23
2023-05-06T05:33:17.383Z,10.60
2023-05-06T05:35:21.990Z,12.40
2023-05-06T05:37:28.373Z,13.50
2023-05-06T05:39:32.132Z,11.40
2023-05-06T05:41:35.753Z,14.57
2023-05-06T05:43:39.271Z,10.30
2023-05-06T05:45:43.111Z,13.97
2023-05-06T05:47:48.487Z,13.87
2023-05-06T05:49:54.695Z,12.00
2023-05-06T05:51:59.685Z,9.43
2023-05-06T05:54:04.225Z,10.13
2023-05-06T05:56:08.748Z,12.20
2023-05-06T05:58:13.361Z,12.83
2023-05-06T06:00:19.128Z,11.30
2023-05-06T06:02:22.674Z,13.07
2023-05-06T06:04:26.356Z,10.87
2023-05-06T06:06:31.405Z,11.00
2023-05-06T06:08:34.936Z,13.10
2023-05-06T06:10:38.998Z,11.13
2023-05-06T06:12:48.914Z,15.30
2023-05-06T06:14:56.589Z,15.60
2023-05-06T06:17:02.751Z,11.77
2023-05-06T06:19:06.929Z,12.10
2023-05-06T06:21:10.471Z,11.43
2023-05-06T06:23:15.319Z,15.10
2023-05-06T06:25:18.760Z,12.17
2023-05-06T06:27:22.187Z,15.13
2023-05-06T06:29:25.714Z,14.43
2023-05-06T06:31:30.430Z,15.30
2023-05-06T06:33:33.938Z,14.40
2023-05-06T06:35:37.397Z,15.53
2023-05-06T06:37:40.911Z,16.73
2023-05-06T06:39:45.634Z,15.30
2023-05-06T06:41:49.010Z,15.10
2023-05-06T06:43:52.360Z,16.30
2023-05-06T06:46:00.804Z,18.10
2023-05-06T06:48:04.866Z,16.10
2023-05-06T06:50:09.916Z,13.20
2023-05-06T06:52:13.531Z,15.73
2023-05-06T06:54:17.463Z,13.00
2023-05-06T06:56:23.063Z,15.20
2023-05-06T06:58:26.508Z,14.50
2023-05-06T07:00:30.129Z,15.53
2023-05-06T07:02:33.606Z,25.20
2023-05-06T07:04:37.074Z,17.33
2023-05-06T07:06:40.576Z,15.13
2023-05-06T07:08:44.059Z,13.63
2023-05-06T07:10:47.465Z,12.87
2023-05-06T07:12:52.875Z,14.80
2023-05-06T07:14:56.336Z,14.97
2023-05-06T07:17:00.741Z,13.97
2023-05-06T07:19:04.414Z,14.20
2023-05-06T07:21:07.809Z,11.00
2023-05-06T07:23:11.190Z,9.93
2023-05-06T07:25:14.883Z,11.30
2023-05-06T07:27:18.451Z,12.87
2023-05-06T07:29:23.281Z,14.73
2023-05-06T07:31:26.888Z,14.90
2023-05-06T07:33:30.504Z,14.53
2023-05-06T07:35:33.844Z,15.00
2023-05-06T07:37:37.329Z,13.87
2023-05-06T07:39:40.723Z,15.80
2023-05-06T07:41:44.164Z,16.13
2023-05-06T07:43:47.788Z,14.53
2023-05-06T07:45:52.753Z,13.17
2023-05-06T07:47:56.928Z,13.67
2023-05-06T07:50:00.927Z,12.37
2023-05-06T07:52:04.685Z,14.13
2023-05-06T07:54:08.239Z,15.10
2023-05-06T07:56:12.136Z,9.27
2023-05-06T07:58:15.777Z,9.73
2023-05-06T08:00:19.371Z,8.57
2023-05-06T08:02:24.530Z,8.50
2023-05-06T08:04:28.024Z,7.97
2023-05-06T08:06:32.255Z,8.60
2023-05-06T08:08:35.641Z,8.23
2023-05-06T08:10:39.046Z,4.80
2023-05-06T08:12:42.772Z,6.00
2023-05-06T08:14:46.648Z,16.67
2023-05-06T08:16:51.470Z,8.73
2023-05-06T08:18:56.187Z,8.43
2023-05-06T08:20:59.596Z,7.20
2023-05-06T08:23:02.909Z,7.83
2023-05-06T08:25:07.390Z,7.93
2023-05-06T08:27:10.855Z,6.67
2023-05-06T08:29:14.510Z,7.83
2023-05-06T08:31:17.982Z,7.93
2023-05-06T08:33:21.338Z,11.13
2023-05-06T08:35:28.129Z,7.23
2023-05-06T08:37:31.809Z,6.87
2023-05-06T08:39:35.201Z,6.50
2023-05-06T08:41:40.806Z,4.70
2023-05-06T08:43:46.897Z,4.27
2023-05-06T08:45:50.609Z,4.07
2023-05-06T08:47:54.298Z,3.17
2023-05-06T08:49:57.651Z,4.00
2023-05-06T08:52:06.012Z,3.00
2023-05-06T08:54:11.051Z,3.10
2023-05-06T08:56:16.295Z,3.13
2023-05-06T08:58:20.279Z,3.40
2023-05-06T09:00:23.616Z,3.20
2023-05-06T09:02:27.437Z,3.17
2023-05-06T09:04:30.881Z,3.80
2023-05-06T09:06:34.674Z,3.13
2023-05-06T09:08:39.409Z,2.73
2023-05-06T09:10:44.758Z,2.30
2023-05-06T09:12:48.104Z,2.90
2023-05-06T09:14:51.992Z,2.30
2023-05-06T09:16:55.376Z,3.00
2023-05-06T09:19:00.269Z,3.03
2023-05-06T09:21:05.544Z,2.20
2023-05-06T09:23:09.749Z,2.50
2023-05-06T09:25:14.838Z,2.80
2023-05-06T09:27:19.378Z,2.43
2023-05-06T09:29:25.271Z,2.13
2023-05-06T09:31:32.818Z,2.30
2023-05-06T09:33:37.330Z,2.60
2023-05-06T09:35:42.711Z,2.33
2023-05-06T09:37:46.162Z,2.53
2023-05-06T09:39:49.704Z,2.57
2023-05-06T09:41:54.659Z,1.57
2023-05-06T09:43:59.092Z,3.00
2023-05-06T09:46:02.888Z,3.73
2023-05-06T09:48:09.310Z,3.40
2023-05-06T09:50:15.281Z,3.20
2023-05-06T09:52:19.469Z,2.23
2023-05-06T09:54:24.025Z,1.47
2023-05-06T09:56:28.892Z,1.60
2023-05-06T09:58:34.456Z,2.00
2023-05-06T10:00:38.082Z,2.33
2023-05-06T10:02:42.178Z,2.13
2023-05-06T10:04:46.038Z,2.23
2023-05-06T10:06:52.161Z,1.77
2023-05-06T10:08:56.767Z,6.20
2023-05-06T10:11:01.902Z,6.37
2023-05-06T10:13:05.378Z,5.87
2023-05-06T10:15:11.459Z,7.57
2023-05-06T10:17:16.038Z,4.17
2023-05-06T10:19:25.630Z,2.43
2023-05-06T10:21:34.215Z,2.97
2023-05-06T10:23:44.321Z,2.00
2023-05-06T10:25:52.066Z,2.87
2023-05-06T10:27:55.440Z,1.37
2023-05-06T10:30:00.957Z,2.20
2023-05-06T10:32:08.187Z,2.17
2023-05-06T10:34:11.831Z,1.83
2023-05-06T10:36:20.404Z,1.70
2023-05-06T10:38:27.943Z,2.90
2023-05-06T10:40:31.684Z,2.10
2023-05-06T10:42:35.410Z,2.10
2023-05-06T10:45:03.818Z,2.73
2023-05-06T10:47:11.138Z,3.30
2023-05-06T10:49:18.350Z,2.50
2023-05-06T10:51:27.109Z,2.80
2023-05-06T10:53:58.044Z,2.40
2023-05-06T10:56:09.892Z,2.70
2023-05-06T10:58:15.860Z,1.80
2023-05-06T11:00:20.149Z,2.07
2023-05-06T11:02:25.217Z,2.10
2023-05-06T11:04:30.317Z,1.47
2023-05-06T11:06:35.549Z,2.00
2023-05-06T11:08:39.911Z,2.10
2023-05-06T11:10:43.337Z,1.70
2023-05-06T11:12:49.006Z,2.00
2023-05-06T11:14:52.671Z,1.60
2023-05-06T11:16:57.836Z,3.00
2023-05-06T11:19:03.920Z,1.77
2023-05-06T11:21:38.827Z,2.00
2023-05-06T11:24:07.277Z,3.00
2023-05-06T11:26:11.541Z,3.30
2023-05-06T11:28:16.082Z,2.50
2023-05-06T11:30:19.408Z,1.50
2023-05-06T11:32:28.929Z,1.80
2023-05-06T11:34:35.415Z,2.03
2023-05-06T11:36:47.213Z,2.43
2023-05-06T11:38:52.364Z,2.07
2023-05-06T11:40:56.279Z,1.63
2023-05-06T11:43:11.153Z,1.10
2023-05-06T11:45:14.444Z,1.70
2023-05-06T11:47:21.910Z,2.50
2023-05-06T11:49:26.766Z,1.57
2023-05-06T11:51:32.495Z,1.87
2023-05-06T11:53:36.085Z,5.20
2023-05-06T11:55:39.732Z,3.10
2023-05-06T11:57:46.162Z,1.90
2023-05-06T11:59:54.943Z,3.57
2023-05-06T12:01:59.767Z,1.90
2023-05-06T12:04:03.331Z,2.70
2023-05-06T12:06:06.987Z,2.43
2023-05-06T12:08:23.665Z,1.50
2023-05-06T12:10:29.800Z,2.43
2023-05-06T12:12:33.462Z,2.70
2023-05-06T12:14:38.096Z,2.17
2023-05-06T12:16:45.048Z,1.40
2023-05-06T12:18:48.554Z,2.07
2023-05-06T12:20:54.605Z,1.57
2023-05-06T12:23:07.755Z,1.40
2023-05-06T12:25:16.845Z,2.40
2023-05-06T12:27:33.511Z,2.30
2023-05-06T12:29:36.987Z,2.47
2023-05-06T12:31:40.403Z,1.50
2023-05-06T12:33:48.965Z,2.90
2023-05-06T12:35:54.664Z,2.10
2023-05-06T12:38:08.091Z,2.03
2023-05-06T12:40:18.868Z,1.80
2023-05-06T12:42:23.026Z,3.33
2023-05-06T12:44:37.588Z,1.47
2023-05-06T12:46:51.848Z,1.47
2023-05-06T12:48:59.396Z,1.23
2023-05-06T12:51:18.632Z,2.07
2023-05-06T12:53:33.158Z,2.97
2023-05-06T12:55:39.604Z,2.97
2023-05-06T12:57:42.962Z,1.53
2023-05-06T12:59:46.660Z,1.40
2023-05-06T13:01:50.212Z,1.80
2023-05-06T13:03:53.652Z,2.90
2023-05-06T13:05:57.100Z,1.90
2023-05-06T13:08:00.998Z,4.50
2023-05-06T13:10:06.111Z,2.70
2023-05-06T13:12:10.819Z,2.60
2023-05-06T13:14:14.515Z,1.70
2023-05-06T13:16:18.218Z,2.43
2023-05-06T13:18:22.109Z,1.80
2023-05-06T13:20:25.675Z,2.07
2023-05-06T13:22:29.228Z,1.53
2023-05-06T13:24:33.284Z,1.37
2023-05-06T13:26:37.443Z,2.40
2023-05-06T13:28:42.510Z,2.20
2023-05-06T13:30:46.059Z,1.70
2023-05-06T13:32:49.485Z,2.83
2023-05-06T13:34:52.854Z,2.67
2023-05-06T13:36:56.759Z,2.00
2023-05-06T13:39:00.568Z,3.13
2023-05-06T13:41:03.943Z,2.30
2023-05-06T13:43:07.369Z,1.50
2023-05-06T13:45:12.493Z,1.30
2023-05-06T13:47:16.479Z,3.40
2023-05-06T13:49:19.963Z,1.67
2023-05-06T13:51:23.845Z,2.30
2023-05-06T13:53:27.187Z,1.67
2023-05-06T13:55:30.588Z,2.00
2023-05-06T13:57:33.953Z,3.20
2023-05-06T13:59:37.390Z,1.83
2023-05-06T14:01:43.987Z,3.53
2023-05-06T14:03:47.443Z,3.50
2023-05-06T14:05:51.234Z,6.30
2023-05-06T14:07:54.617Z,4.30
2023-05-06T14:09:58.463Z,4.53
2023-05-06T14:12:02.907Z,6.07
2023-05-06T14:14:06.298Z,6.30
2023-05-06T14:16:09.720Z,15.03
2023-05-06T14:18:14.420Z,20.93
2023-05-06T14:20:17.830Z,9.37
2023-05-06T14:22:21.201Z,2.77
2023-05-06T14:24:24.516Z,6.07
2023-05-06T14:26:27.970Z,2.97
2023-05-06T14:28:31.426Z,4.17
2023-05-06T14:30:35.645Z,4.80
2023-05-06T14:32:39.067Z,4.10
2023-05-06T14:34:43.813Z,6.40
2023-05-06T14:36:47.205Z,4.67
2023-05-06T14:38:50.515Z,6.80
2023-05-06T14:40:53.925Z,4.53
2023-05-06T14:42:57.420Z,1.83
2023-05-06T14:45:00.728Z,3.30
2023-05-06T14:47:04.042Z,6.63
2023-05-06T14:49:07.562Z,2.50
2023-05-06T14:51:12.288Z,3.17
2023-05-06T14:53:15.731Z,3.43
2023-05-06T14:55:20.227Z,1.83
2023-05-06T14:57:23.890Z,2.03
2023-05-06T14:59:27.341Z,1.67
2023-05-06T15:01:32.230Z,1.77
2023-05-06T15:03:36.292Z,2.80
2023-05-06T15:05:39.691Z,2.00
2023-05-06T15:07:44.352Z,2.67
2023-05-06T15:09:47.756Z,1.70
2023-05-06T15:11:51.074Z,1.43
2023-05-06T15:13:55.471Z,1.73
2023-05-06T15:15:58.895Z,1.30
2023-05-06T15:18:02.287Z,2.20
2023-05-06T15:20:08.593Z,1.30
2023-05-06T15:22:11.927Z,1.40
2023-05-06T15:24:16.625Z,1.23
2023-05-06T15:26:19.982Z,1.90
2023-05-06T15:28:24.695Z,1.63
2023-05-06T15:30:28.133Z,1.20
2023-05-06T15:32:31.846Z,1.53
2023-05-06T15:34:35.271Z,1.70
2023-05-06T15:36:38.765Z,1.77
2023-05-06T15:39:00.880Z,1.73
2023-05-06T15:41:06.115Z,1.53
2023-05-06T15:43:09.811Z,1.20
2023-05-06T15:45:13.746Z,1.97
2023-05-06T15:47:17.388Z,2.07
2023-05-06T15:51:27.377Z,6.37
2023-05-06T15:53:30.927Z,3.57
2023-05-06T15:55:41.637Z,3.40
2023-05-06T15:57:49.958Z,2.73
2023-05-06T15:59:53.522Z,2.67
2023-05-06T16:02:24.697Z,2.67
2023-05-06T16:04:21.641Z,2.37
2023-05-06T16:06:25.074Z,2.30
2023-05-06T16:08:28.571Z,2.40
2023-05-06T16:10:31.853Z,2.80
2023-05-06T16:12:35.189Z,3.07
2023-05-06T16:14:39.905Z,3.53
2023-05-06T16:16:43.284Z,2.47
2023-05-06T16:18:46.698Z,5.43
2023-05-06T16:20:49.970Z,5.67
2023-05-06T16:22:53.758Z,5.00
2023-05-06T16:24:57.473Z,3.37
2023-05-06T16:27:00.996Z,1.77
2023-05-06T16:29:04.446Z,3.53
2023-05-06T16:31:09.266Z,2.20
2023-05-06T16:33:13.209Z,1.93
2023-05-06T16:35:17.333Z,2.63
2023-05-06T16:37:20.728Z,5.13
2023-05-06T16:39:24.077Z,3.20
2023-05-06T16:41:27.429Z,3.53
2023-05-06T16:43:30.902Z,4.20
2023-05-06T16:45:34.267Z,4.07
2023-05-06T16:47:39.233Z,5.43
2023-05-06T16:49:42.614Z,3.33
2023-05-06T16:51:45.956Z,3.73
2023-05-06T16:53:49.301Z,3.37
2023-05-06T16:55:52.676Z,4.83
2023-05-06T16:57:56.128Z,4.03
2023-05-06T16:59:59.576Z,3.33
2023-05-06T17:02:02.996Z,3.43
2023-05-06T17:04:07.717Z,3.47
2023-05-06T17:06:11.467Z,3.90
2023-05-06T17:08:16.154Z,3.13
2023-05-06T17:10:20.827Z,4.00
2023-05-06T17:12:24.164Z,7.37
2023-05-06T17:14:28.125Z,4.87
2023-05-06T17:16:31.576Z,3.80
2023-05-06T17:18:34.980Z,4.17
2023-05-06T17:22:45.906Z,3.70
2023-05-06T17:24:51.128Z,5.27
2023-05-06T17:26:54.440Z,4.70
2023-05-06T17:28:58.017Z,4.33
2023-05-06T17:31:01.638Z,3.33
2023-05-06T17:33:05.235Z,2.20
2023-05-06T17:35:09.566Z,2.10
2023-05-06T17:37:14.441Z,2.23
2023-05-06T17:39:17.982Z,6.73
2023-05-06T17:41:21.344Z,4.00
2023-05-06T17:43:24.678Z,2.60
2023-05-06T17:45:28.476Z,2.70
2023-05-06T17:47:32.265Z,2.73
2023-05-06T17:49:35.702Z,3.23
2023-05-06T17:51:40.800Z,2.57
2023-05-06T17:53:45.648Z,3.80
2023-05-06T17:55:49.193Z,3.53
2023-05-06T17:57:52.847Z,3.30
2023-05-06T17:59:56.282Z,2.27
2023-05-06T18:02:00.295Z,2.57
2023-05-06T18:04:03.844Z,2.77
2023-05-06T18:06:07.633Z,1.90
2023-05-06T18:08:10.956Z,1.90
2023-05-06T18:10:15.677Z,2.20
2023-05-06T18:12:19.104Z,1.83
2023-05-06T18:14:22.498Z,1.60
2023-05-06T18:16:25.997Z,2.40
2023-05-06T18:18:29.697Z,1.87
2023-05-06T18:20:34.736Z,2.00
2023-05-06T18:22:39.032Z,2.10
2023-05-06T18:24:42.380Z,2.07
2023-05-06T18:26:47.055Z,2.40
2023-05-06T18:28:50.690Z,1.90
2023-05-06T18:30:54.033Z,1.70
2023-05-06T18:32:57.429Z,2.23
2023-05-06T18:35:00.998Z,1.47
2023-05-06T18:37:04.626Z,1.80
2023-05-06T18:39:08.819Z,1.83
2023-05-06T18:41:12.101Z,2.47
2023-05-06T18:43:16.823Z,2.17
2023-05-06T18:45:20.260Z,2.67
2023-05-06T18:47:25.579Z,3.43
2023-05-06T18:49:30.673Z,3.30
2023-05-06T18:51:33.997Z,3.10
2023-05-06T18:53:37.950Z,3.17
2023-05-06T18:55:41.245Z,2.93
2023-05-06T18:57:44.612Z,3.17
2023-05-06T18:59:49.285Z,3.07
2023-05-06T19:01:52.839Z,2.60
2023-05-06T19:03:56.718Z,1.97
2023-05-06T19:06:02.407Z,2.00
2023-05-06T19:08:07.354Z,1.93
2023-05-06T19:10:11.346Z,2.60
2023-05-06T19:12:15.087Z,2.77
2023-05-06T19:14:18.449Z,1.90
2023-05-06T19:16:23.304Z,4.00
2023-05-06T19:18:26.874Z,3.73
2023-05-06T19:20:30.389Z,1.87
2023-05-06T19:22:33.892Z,3.10
2023-05-06T19:24:37.383Z,4.20
2023-05-06T19:26:40.954Z,3.57
2023-05-06T19:28:44.304Z,4.43
2023-05-06T19:30:48.497Z,2.67
2023-05-06T19:32:54.817Z,2.90
2023-05-06T19:35:07.641Z,3.03
2023-05-06T19:37:11.295Z,3.70
2023-05-06T19:39:16.282Z,2.93
2023-05-06T19:41:19.623Z,3.33
2023-05-06T19:43:24.446Z,2.50
2023-05-06T19:45:28.052Z,2.30
2023-05-06T19:47:31.746Z,3.20
2023-05-06T19:49:36.428Z,2.90
2023-05-06T19:51:39.761Z,2.50
2023-05-06T19:53:43.080Z,2.50
2023-05-06T19:55:46.584Z,2.60
2023-05-06T19:57:50.475Z,2.47
2023-05-06T19:59:54.196Z,2.80
2023-05-06T20:02:00.677Z,2.90
2023-05-06T20:04:04.352Z,2.97
2023-05-06T20:06:09.304Z,3.07
2023-05-06T20:08:12.859Z,2.30
2023-05-06T20:10:16.271Z,2.53
2023-05-06T20:12:19.605Z,3.30
2023-05-06T20:14:22.934Z,2.40
2023-05-06T20:16:26.443Z,2.53
2023-05-06T20:18:31.776Z,2.90
2023-05-06T20:20:36.020Z,2.50
2023-05-06T20:22:41.582Z,3.00
2023-05-06T20:24:45.711Z,3.27
2023-05-06T20:26:49.080Z,3.13
2023-05-06T20:28:53.165Z,2.70
2023-05-06T20:30:59.563Z,3.03
2023-05-06T20:33:03.017Z,3.10
2023-05-06T20:35:07.396Z,2.73
2023-05-06T20:37:10.764Z,2.27
2023-05-06T20:39:15.436Z,5.50
2023-05-06T20:41:18.709Z,3.20
2023-05-06T20:43:22.038Z,2.93
2023-05-06T20:45:25.617Z,3.00
2023-05-06T20:47:31.472Z,3.40
2023-05-06T20:49:34.854Z,3.90
2023-05-06T20:51:38.315Z,2.83
2023-05-06T20:53:42.781Z,2.97
2023-05-06T20:55:47.608Z,12.57
2023-05-06T20:57:51.125Z,5.63
2023-05-06T20:59:56.021Z,4.20
2023-05-06T21:01:59.494Z,4.63
2023-05-06T21:04:04.689Z,3.67
2023-05-06T21:06:08.485Z,3.37
2023-05-06T21:08:12.470Z,3.67
2023-05-06T21:10:15.850Z,3.60
2023-05-06T21:12:20.680Z,3.10
2023-05-06T21:14:24.792Z,3.40
2023-05-06T21:16:28.240Z,2.70
2023-05-06T21:18:31.677Z,2.90
2023-05-06T21:20:35.124Z,2.80
2023-05-06T21:22:38.426Z,6.00
2023-05-06T21:24:41.780Z,3.07
2023-05-06T21:26:45.246Z,2.20
2023-05-06T21:28:52.008Z,2.40
2023-05-06T21:30:55.353Z,3.17
2023-05-06T21:32:58.790Z,2.63
2023-05-06T21:35:03.686Z,3.00
2023-05-06T21:37:07.028Z,3.33
2023-05-06T21:39:12.627Z,2.93
2023-05-06T21:41:16.584Z,3.70
2023-05-06T21:43:19.920Z,3.00
2023-05-06T21:45:24.581Z,3.10
2023-05-06T21:47:28.093Z,3.00
2023-05-06T21:49:31.574Z,3.10
2023-05-06T21:51:37.576Z,3.10
2023-05-06T21:53:41.317Z,2.97
2023-05-06T21:55:44.623Z,4.10
2023-05-06T21:57:47.892Z,3.73
2023-05-06T21:59:52.054Z,3.23
2023-05-06T22:01:56.792Z,4.17
2023-05-06T22:04:00.474Z,3.80
2023-05-06T22:06:04.267Z,4.17
2023-05-06T22:08:07.663Z,4.77
2023-05-06T22:10:11.719Z,4.73
2023-05-06T22:12:15.479Z,3.77
2023-05-06T22:14:21.915Z,4.40
2023-05-06T22:16:27.981Z,2.73
2023-05-06T22:18:32.910Z,3.10
2023-05-06T22:20:37.302Z,2.93
2023-05-06T22:22:40.731Z,3.80
2023-05-06T22:24:44.047Z,4.50
2023-05-06T22:26:47.380Z,3.40
2023-05-06T22:28:50.985Z,3.40
2023-05-06T22:30:54.273Z,3.13
2023-05-06T22:32:57.659Z,3.47
2023-05-06T22:35:02.388Z,4.30
2023-05-06T22:37:09.425Z,3.63
2023-05-06T22:39:13.196Z,3.30
2023-05-06T22:41:18.097Z,3.50
2023-05-06T22:43:21.378Z,4.40
2023-05-06T22:45:24.645Z,3.20
2023-05-06T22:47:28.184Z,3.67
2023-05-06T22:49:32.794Z,3.20
2023-05-06T22:51:37.855Z,3.23
2023-05-06T22:53:41.171Z,3.63
2023-05-06T22:55:45.358Z,3.60
2023-05-06T22:57:49.871Z,4.37
2023-05-06T22:59:53.248Z,3.20
2023-05-06T23:01:56.702Z,2.40
2023-05-06T23:04:00.476Z,3.27
2023-05-06T23:06:05.968Z,3.33
2023-05-06T23:08:10.866Z,2.97
2023-05-06T23:10:14.160Z,2.93
2023-05-06T23:12:17.455Z,2.80
2023-05-06T23:14:20.816Z,2.90
2023-05-06T23:16:24.213Z,2.50
2023-05-06T23:18:27.465Z,2.47
2023-05-06T23:20:30.831Z,2.60
2023-05-06T23:22:34.300Z,2.43
2023-05-06T23:24:39.045Z,2.97
2023-05-06T23:26:42.356Z,2.37
2023-05-06T23:28:45.819Z,3.30
2023-05-06T23:30:49.325Z,2.60
2023-05-06T23:32:52.748Z,3.07
2023-05-06T23:34:56.178Z,2.80
2023-05-06T23:36:59.498Z,3.20
2023-05-06T23:39:03.005Z,3.10
2023-05-06T23:41:08.361Z,3.20
2023-05-06T23:43:11.762Z,3.17
2023-05-06T23:45:15.225Z,3.67
2023-05-06T23:47:18.964Z,3.27
2023-05-06T23:49:22.397Z,4.33
2023-05-06T23:51:26.527Z,4.13
2023-05-06T23:53:29.853Z,3.67
2023-05-06T23:55:33.320Z,3.50
2023-05-06T23:57:38.158Z,2.83
2023-05-06T23:59:41.608Z,2.73
